createdAt,value
2019-01-19T00:01:41.164Z,4.00
2019-01-19T00:05:13.598Z,3.73
2019-01-19T00:08:24.820Z,3.93
2019-01-19T00:12:18.610Z,4.50
2019-01-19T00:15:40.332Z,4.47
2019-01-19T00:19:15.056Z,4.53
2019-01-19T00:22:50.913Z,4.53
2019-01-19T00:26:52.180Z,3.80
2019-01-19T00:30:17.284Z,3.33
2019-01-19T00:33:54.353Z,4.40
2019-01-19T00:37:18.540Z,4.00
2019-01-19T00:41:10.714Z,4.07
2019-01-19T00:44:32.323Z,3.70
2019-01-19T00:47:40.125Z,4.23
2019-01-19T00:51:12.093Z,4.93
2019-01-19T00:54:16.103Z,3.73
2019-01-19T00:57:27.079Z,4.60
2019-01-19T01:00:28.531Z,4.93
2019-01-19T01:04:24.581Z,4.70
2019-01-19T01:07:55.522Z,5.27
2019-01-19T01:11:42.063Z,4.03
2019-01-19T01:15:33.716Z,4.40
2019-01-19T01:19:33.767Z,5.23
2019-01-19T01:23:41.665Z,4.97
2019-01-19T01:27:04.370Z,4.40
2019-01-19T01:30:37.737Z,4.10
2019-01-19T01:34:14.327Z,4.97
2019-01-19T01:37:39.835Z,4.50
2019-01-19T01:41:06.890Z,5.07
2019-01-19T01:44:25.242Z,4.43
2019-01-19T01:47:56.903Z,4.60
2019-01-19T01:51:03.668Z,4.50
2019-01-19T01:54:29.920Z,4.60
2019-01-19T01:57:29.739Z,4.73
2019-01-19T02:01:06.347Z,5.53
2019-01-19T02:04:57.946Z,4.80
2019-01-19T02:08:17.933Z,5.03
2019-01-19T02:11:37.176Z,5.50
2019-01-19T02:15:05.392Z,4.07
2019-01-19T02:18:22.496Z,4.40
2019-01-19T02:22:03.438Z,6.23
2019-01-19T02:25:10.575Z,4.83
2019-01-19T02:28:32.073Z,4.60
2019-01-19T02:32:06.012Z,5.23
2019-01-19T02:35:38.885Z,4.50
2019-01-19T02:39:07.677Z,5.10
2019-01-19T02:43:09.848Z,5.87
2019-01-19T02:47:06.408Z,5.57
2019-01-19T02:50:32.653Z,6.00
2019-01-19T02:53:49.654Z,5.80
2019-01-19T02:57:26.432Z,4.43
2019-01-19T03:00:49.407Z,4.87
2019-01-19T03:04:22.816Z,6.50
2019-01-19T03:08:33.869Z,5.47
2019-01-19T03:11:49.574Z,6.40
2019-01-19T03:15:46.834Z,6.43
2019-01-19T03:19:13.247Z,5.10
2019-01-19T03:22:49.291Z,6.10
2019-01-19T03:25:58.374Z,6.00
2019-01-19T03:29:37.584Z,6.03
2019-01-19T03:33:21.165Z,5.47
2019-01-19T03:36:43.530Z,6.37
2019-01-19T03:40:29.983Z,6.37
2019-01-19T03:44:37.416Z,6.70
2019-01-19T03:48:19.301Z,6.43
2019-01-19T03:51:59.239Z,7.13
2019-01-19T03:55:40.652Z,5.97
2019-01-19T03:59:36.839Z,6.40
2019-01-19T04:03:16.538Z,6.60
2019-01-19T04:06:46.138Z,8.20
2019-01-19T04:09:57.913Z,8.60
2019-01-19T04:13:35.536Z,7.40
2019-01-19T04:17:20.673Z,6.57
2019-01-19T04:21:17.977Z,8.57
2019-01-19T04:24:26.713Z,8.17
2019-01-19T04:27:16.705Z,6.87
2019-01-19T04:30:10.309Z,7.03
2019-01-19T04:32:59.944Z,7.70
2019-01-19T04:35:49.628Z,8.50
2019-01-19T04:38:41.558Z,7.27
2019-01-19T04:41:32.534Z,7.80
2019-01-19T04:44:22.894Z,6.90
2019-01-19T04:47:12.803Z,7.73
2019-01-19T04:50:02.672Z,7.70
2019-01-19T04:52:52.426Z,7.70
2019-01-19T04:55:42.469Z,7.87
2019-01-19T04:58:32.290Z,7.43
2019-01-19T05:01:22.410Z,7.57
2019-01-19T05:04:12.420Z,7.43
2019-01-19T05:07:02.297Z,7.23
2019-01-19T05:09:52.481Z,7.53
2019-01-19T05:12:42.142Z,7.10
2019-01-19T05:15:31.874Z,7.10
2019-01-19T05:18:22.134Z,7.40
2019-01-19T05:21:12.570Z,7.60
2019-01-19T05:24:02.140Z,6.90
2019-01-19T05:26:52.040Z,6.87
2019-01-19T05:29:42.003Z,6.97
2019-01-19T05:32:32.313Z,7.30
2019-01-19T05:35:22.215Z,7.37
2019-01-19T05:38:11.994Z,7.00
2019-01-19T05:41:01.797Z,7.80
2019-01-19T05:43:51.606Z,7.80
2019-01-19T05:46:41.420Z,7.17
2019-01-19T05:49:31.202Z,8.60
2019-01-19T05:52:21.261Z,7.37
2019-01-19T05:55:11.797Z,7.93
2019-01-19T05:58:01.421Z,7.10
2019-01-19T06:00:51.109Z,7.27
2019-01-19T06:03:41.149Z,8.10
2019-01-19T06:06:31.170Z,8.77
2019-01-19T06:09:20.963Z,7.70
2019-01-19T06:12:10.429Z,7.17
2019-01-19T06:15:00.012Z,8.00
2019-01-19T06:17:50.226Z,7.50
2019-01-19T06:20:40.053Z,7.07
2019-01-19T06:23:29.885Z,7.20
2019-01-19T06:26:19.915Z,6.67
2019-01-19T06:29:09.827Z,7.30
2019-01-19T06:31:59.766Z,7.13
2019-01-19T06:34:49.444Z,7.83
2019-01-19T06:37:39.477Z,7.30
2019-01-19T06:40:29.339Z,6.70
2019-01-19T06:43:19.170Z,6.07
2019-01-19T06:46:08.899Z,6.80
2019-01-19T06:48:58.987Z,6.03
2019-01-19T06:51:49.139Z,7.97
2019-01-19T06:54:39.464Z,5.77
2019-01-19T06:57:29.113Z,7.90
2019-01-19T07:00:20.525Z,7.23
2019-01-19T07:03:10.574Z,6.33
2019-01-19T07:06:00.850Z,6.30
2019-01-19T07:08:50.797Z,5.93
2019-01-19T07:11:41.118Z,7.17
2019-01-19T07:14:31.202Z,5.67
2019-01-19T07:17:21.441Z,6.60
2019-01-19T07:20:15.072Z,6.17
2019-01-19T07:23:04.893Z,5.80
2019-01-19T07:25:54.693Z,5.60
2019-01-19T07:28:44.833Z,5.50
2019-01-19T07:31:34.723Z,6.20
2019-01-19T07:34:24.775Z,4.90
2019-01-19T07:37:14.584Z,5.40
2019-01-19T07:40:05.121Z,5.23
2019-01-19T07:42:58.868Z,5.63
2019-01-19T07:45:48.679Z,5.50
2019-01-19T07:48:38.289Z,4.80
2019-01-19T07:51:28.336Z,5.40
2019-01-19T07:54:18.501Z,4.90
2019-01-19T07:57:08.315Z,6.37
2019-01-19T07:59:58.302Z,5.40
2019-01-19T08:02:48.399Z,5.90
2019-01-19T08:05:38.663Z,4.77
2019-01-19T08:08:28.644Z,5.10
2019-01-19T08:11:18.923Z,3.67
2019-01-19T08:14:08.584Z,4.80
2019-01-19T08:16:58.610Z,4.27
2019-01-19T08:19:48.326Z,5.73
2019-01-19T08:22:38.434Z,4.37
2019-01-19T08:25:28.629Z,3.90
2019-01-19T08:28:18.993Z,3.90
2019-01-19T08:31:09.378Z,3.70
2019-01-19T08:33:59.159Z,3.43
2019-01-19T08:36:48.966Z,4.03
2019-01-19T08:39:38.808Z,4.00
2019-01-19T08:42:40.433Z,4.17
2019-01-19T08:45:30.144Z,2.80
2019-01-19T08:48:21.063Z,4.20
2019-01-19T08:51:10.862Z,4.00
2019-01-19T08:53:59.951Z,4.10
2019-01-19T08:56:50.025Z,4.60
2019-01-19T08:59:39.724Z,4.03
2019-01-19T09:02:29.848Z,4.80
2019-01-19T09:05:19.873Z,4.87
2019-01-19T09:08:12.921Z,13.27
2019-01-19T09:11:02.733Z,16.47
2019-01-19T09:13:53.005Z,18.73
2019-01-19T09:16:43.192Z,6.40
2019-01-19T09:19:32.925Z,3.97
2019-01-19T09:22:22.774Z,4.80
2019-01-19T09:25:14.654Z,5.13
2019-01-19T09:28:04.427Z,4.10
2019-01-19T09:30:54.183Z,3.97
2019-01-19T09:33:44.428Z,3.57
2019-01-19T09:36:34.276Z,3.70
2019-01-19T09:39:24.312Z,3.10
2019-01-19T09:42:14.672Z,3.90
2019-01-19T09:45:05.935Z,3.60
2019-01-19T09:47:55.519Z,3.17
2019-01-19T09:50:45.803Z,4.30
2019-01-19T09:53:35.579Z,3.97
2019-01-19T09:56:25.472Z,3.50
2019-01-19T09:59:15.796Z,3.80
2019-01-19T10:02:06.178Z,3.53
2019-01-19T10:04:56.494Z,3.43
2019-01-19T10:07:48.646Z,3.23
2019-01-19T10:10:38.795Z,3.53
2019-01-19T10:13:28.594Z,3.13
2019-01-19T10:16:18.229Z,3.27
2019-01-19T10:19:08.036Z,3.87
2019-01-19T10:21:57.838Z,4.67
2019-01-19T10:24:48.015Z,3.63
2019-01-19T10:27:38.166Z,3.50
2019-01-19T10:30:28.626Z,3.63
2019-01-19T10:33:19.342Z,5.23
2019-01-19T10:36:09.234Z,3.33
2019-01-19T10:38:59.373Z,3.03
2019-01-19T10:41:49.156Z,3.83
2019-01-19T10:44:38.958Z,3.37
2019-01-19T10:47:28.637Z,3.97
2019-01-19T10:50:19.158Z,3.57
2019-01-19T10:53:08.923Z,3.63
2019-01-19T10:55:59.128Z,4.30
2019-01-19T10:58:49.010Z,4.07
2019-01-19T11:01:38.847Z,4.70
2019-01-19T11:04:29.134Z,4.10
2019-01-19T11:07:19.508Z,3.60
2019-01-19T11:10:14.688Z,3.30
2019-01-19T11:13:05.604Z,3.63
2019-01-19T11:15:55.090Z,3.90
2019-01-19T11:18:45.113Z,3.73
2019-01-19T11:21:35.014Z,3.90
2019-01-19T11:24:25.052Z,3.50
2019-01-19T11:27:14.994Z,4.43
2019-01-19T11:30:07.134Z,4.70
2019-01-19T11:32:57.293Z,3.20
2019-01-19T11:35:47.278Z,3.90
2019-01-19T11:38:36.967Z,6.07
2019-01-19T11:41:26.835Z,4.33
2019-01-19T11:44:16.409Z,5.40
2019-01-19T11:47:06.007Z,3.90
2019-01-19T11:49:55.587Z,4.57
2019-01-19T11:52:45.440Z,3.77
2019-01-19T11:55:35.496Z,4.30
2019-01-19T11:58:25.671Z,3.83
2019-01-19T12:01:15.138Z,5.27
2019-01-19T12:04:06.457Z,4.40
2019-01-19T12:06:58.756Z,3.77
2019-01-19T12:09:48.550Z,3.20
2019-01-19T12:12:38.537Z,3.90
2019-01-19T12:15:28.984Z,3.80
2019-01-19T12:18:18.999Z,3.30
2019-01-19T12:21:08.713Z,3.77
2019-01-19T12:23:58.713Z,3.47
2019-01-19T12:26:49.924Z,3.67
2019-01-19T12:29:40.098Z,3.67
2019-01-19T12:32:30.206Z,4.00
2019-01-19T12:35:20.256Z,3.83
2019-01-19T12:38:10.087Z,4.30
2019-01-19T12:41:00.170Z,3.30
2019-01-19T12:43:50.077Z,3.20
2019-01-19T12:46:39.983Z,3.53
2019-01-19T12:49:30.009Z,3.53
2019-01-19T12:52:21.510Z,3.30
2019-01-19T12:55:11.645Z,4.07
2019-01-19T12:58:01.464Z,2.80
2019-01-19T13:00:51.299Z,2.63
2019-01-19T13:03:41.637Z,3.23
2019-01-19T13:07:03.358Z,3.20
2019-01-19T13:10:02.737Z,3.10
2019-01-19T13:13:16.384Z,2.20
2019-01-19T13:16:37.624Z,3.13
2019-01-19T13:20:03.853Z,2.80
2019-01-19T13:23:47.866Z,2.50
2019-01-19T13:27:05.292Z,3.40
2019-01-19T13:30:51.726Z,2.50
2019-01-19T13:34:35.914Z,3.10
2019-01-19T13:38:21.315Z,2.80
2019-01-19T13:42:16.004Z,2.83
2019-01-19T13:45:36.061Z,4.40
2019-01-19T13:48:59.951Z,2.60
2019-01-19T13:52:17.108Z,2.77
2019-01-19T13:56:01.190Z,2.70
2019-01-19T13:59:12.900Z,2.83
2019-01-19T14:02:44.610Z,3.20
2019-01-19T14:06:31.258Z,2.30
2019-01-19T14:09:49.433Z,2.83
2019-01-19T14:13:12.421Z,3.30
2019-01-19T14:16:37.359Z,2.67
2019-01-19T14:19:48.380Z,2.90
2019-01-19T14:24:01.235Z,2.90
2019-01-19T14:27:56.204Z,2.80
2019-01-19T14:31:24.477Z,2.90
2019-01-19T14:34:34.040Z,2.53
2019-01-19T14:38:27.523Z,2.60
2019-01-19T14:42:03.355Z,3.10
2019-01-19T14:46:05.282Z,2.60
2019-01-19T14:49:44.207Z,2.40
2019-01-19T14:53:40.763Z,2.20
2019-01-19T14:57:29.526Z,2.00
2019-01-19T15:01:05.944Z,1.57
2019-01-19T15:04:11.310Z,2.10
2019-01-19T15:07:40.515Z,2.23
2019-01-19T15:11:33.371Z,3.60
2019-01-19T15:14:48.217Z,2.50
2019-01-19T15:18:17.783Z,5.40
2019-01-19T15:21:38.365Z,2.87
2019-01-19T15:25:19.597Z,2.53
2019-01-19T15:28:42.916Z,3.23
2019-01-19T15:32:12.127Z,2.87
2019-01-19T15:36:05.207Z,2.87
2019-01-19T15:39:42.763Z,6.17
2019-01-19T15:43:25.521Z,3.80
2019-01-19T15:47:02.557Z,2.93
2019-01-19T15:50:54.088Z,3.97
2019-01-19T15:54:05.801Z,5.07
2019-01-19T15:57:56.875Z,3.00
2019-01-19T16:01:43.815Z,4.60
2019-01-19T16:05:22.431Z,3.67
2019-01-19T16:08:47.062Z,3.93
2019-01-19T16:12:31.019Z,4.77
2019-01-19T16:16:15.964Z,2.90
2019-01-19T16:20:00.664Z,3.70
2019-01-19T16:23:33.722Z,5.00
2019-01-19T16:26:48.545Z,4.60
2019-01-19T16:30:06.239Z,6.43
2019-01-19T16:34:09.024Z,4.30
2019-01-19T16:37:51.876Z,18.40
2019-01-19T16:40:55.979Z,15.97
2019-01-19T16:44:49.200Z,9.10
2019-01-19T16:48:31.760Z,5.70
2019-01-19T16:52:00.044Z,6.07
2019-01-19T16:55:14.464Z,4.97
2019-01-19T16:58:59.054Z,4.87
2019-01-19T17:02:35.450Z,5.20
2019-01-19T17:05:58.220Z,5.30
2019-01-19T17:09:42.569Z,5.90
2019-01-19T17:13:30.215Z,6.57
2019-01-19T17:16:27.622Z,5.73
2019-01-19T17:19:50.984Z,5.70
2019-01-19T17:23:32.219Z,6.10
2019-01-19T17:27:03.669Z,8.03
2019-01-19T17:31:11.936Z,7.43
2019-01-19T17:34:41.587Z,9.60
2019-01-19T17:38:09.152Z,8.03
2019-01-19T17:41:45.679Z,11.63
2019-01-19T17:45:06.019Z,10.50
2019-01-19T17:48:25.474Z,11.07
2019-01-19T17:51:49.577Z,10.30
2019-01-19T17:55:40.417Z,8.70
2019-01-19T17:59:02.806Z,9.13
2019-01-19T18:02:39.121Z,9.23
2019-01-19T18:06:35.676Z,9.30
2019-01-19T18:10:29.249Z,11.23
2019-01-19T18:14:00.375Z,10.40
2019-01-19T18:17:39.907Z,8.73
2019-01-19T18:21:14.776Z,8.63
2019-01-19T18:24:34.676Z,10.07
2019-01-19T18:28:24.298Z,10.23
2019-01-19T18:32:13.501Z,10.60
2019-01-19T18:35:40.688Z,10.90
2019-01-19T18:39:33.164Z,9.53
2019-01-19T18:42:53.858Z,9.30
2019-01-19T18:46:41.549Z,9.67
2019-01-19T18:50:29.701Z,10.13
2019-01-19T18:53:53.217Z,11.80
2019-01-19T18:57:48.565Z,10.00
2019-01-19T19:01:34.625Z,9.60
2019-01-19T19:04:55.114Z,10.70
2019-01-19T19:08:41.295Z,10.43
2019-01-19T19:12:06.658Z,10.87
2019-01-19T19:15:52.740Z,10.20
2019-01-19T19:19:38.355Z,10.40
2019-01-19T19:23:25.039Z,11.20
2019-01-19T19:27:36.931Z,11.50
2019-01-19T19:31:19.617Z,10.60
2019-01-19T19:34:53.467Z,11.17
2019-01-19T19:38:41.708Z,10.43
2019-01-19T19:42:03.802Z,13.40
2019-01-19T19:45:42.372Z,12.03
2019-01-19T19:49:08.559Z,10.77
2019-01-19T19:52:04.348Z,12.03
2019-01-19T19:54:52.797Z,11.80
2019-01-19T19:57:42.616Z,10.77
2019-01-19T20:00:32.952Z,10.97
2019-01-19T20:03:24.530Z,11.07
2019-01-19T20:06:13.959Z,11.20
2019-01-19T20:09:06.983Z,12.00
2019-01-19T20:12:03.738Z,11.23
2019-01-19T20:14:54.319Z,11.60
2019-01-19T20:17:44.897Z,10.00
2019-01-19T20:20:35.427Z,11.53
2019-01-19T20:23:25.382Z,10.67
2019-01-19T20:26:15.165Z,11.37
2019-01-19T20:29:05.361Z,10.70
2019-01-19T20:31:54.934Z,9.87
2019-01-19T20:34:44.582Z,13.33
2019-01-19T20:37:34.595Z,11.30
2019-01-19T20:40:24.513Z,12.40
2019-01-19T20:43:14.207Z,26.77
2019-01-19T20:46:04.455Z,38.77
2019-01-19T20:48:56.225Z,47.63
2019-01-19T20:51:46.195Z,20.10
2019-01-19T20:54:36.511Z,17.10
2019-01-19T20:57:27.105Z,22.90
2019-01-19T21:00:17.140Z,19.07
2019-01-19T21:03:07.562Z,14.10
2019-01-19T21:05:57.598Z,11.73
2019-01-19T21:08:47.001Z,12.03
2019-01-19T21:11:36.756Z,10.37
2019-01-19T21:14:26.670Z,11.10
2019-01-19T21:17:16.614Z,11.40
2019-01-19T21:20:10.263Z,12.60
2019-01-19T21:23:00.321Z,12.23
2019-01-19T21:25:49.688Z,13.20
2019-01-19T21:28:39.904Z,12.20
2019-01-19T21:31:29.611Z,12.30
2019-01-19T21:34:20.864Z,14.03
2019-01-19T21:37:11.064Z,13.20
2019-01-19T21:40:00.859Z,11.90
2019-01-19T21:42:51.191Z,11.53
2019-01-19T21:45:40.873Z,10.07
2019-01-19T21:48:31.203Z,9.03
2019-01-19T21:51:21.520Z,11.47
2019-01-19T21:54:11.468Z,10.13
2019-01-19T21:57:01.470Z,9.47
2019-01-19T21:59:51.119Z,9.20
2019-01-19T22:02:41.029Z,9.30
2019-01-19T22:05:31.177Z,9.57
2019-01-19T22:08:20.371Z,9.90
2019-01-19T22:11:10.645Z,9.97
2019-01-19T22:14:00.163Z,9.30
2019-01-19T22:16:50.232Z,9.70
2019-01-19T22:19:39.988Z,9.17
2019-01-19T22:22:30.123Z,12.63
2019-01-19T22:25:20.283Z,10.57
2019-01-19T22:28:10.194Z,9.43
2019-01-19T22:31:00.382Z,10.57
2019-01-19T22:33:50.489Z,10.30
2019-01-19T22:36:40.484Z,10.63
2019-01-19T22:39:30.273Z,9.93
2019-01-19T22:42:20.418Z,8.70
2019-01-19T22:45:13.372Z,10.93
2019-01-19T22:48:03.616Z,10.80
2019-01-19T22:50:53.204Z,12.13
2019-01-19T22:53:42.833Z,11.47
2019-01-19T22:56:33.111Z,9.93
2019-01-19T22:59:22.960Z,9.83
2019-01-19T23:02:15.837Z,10.80
2019-01-19T23:05:07.164Z,11.40
2019-01-19T23:07:56.852Z,9.20
2019-01-19T23:10:47.204Z,10.67
2019-01-19T23:13:39.495Z,10.40
2019-01-19T23:16:29.295Z,10.13
2019-01-19T23:19:19.069Z,11.80
2019-01-19T23:22:08.609Z,10.87
2019-01-19T23:24:58.785Z,11.87
2019-01-19T23:27:48.466Z,11.03
2019-01-19T23:30:37.836Z,10.13
2019-01-19T23:33:27.470Z,11.80
2019-01-19T23:36:16.908Z,12.73
2019-01-19T23:39:10.487Z,11.40
2019-01-19T23:41:59.903Z,12.60
2019-01-19T23:44:49.747Z,12.77
2019-01-19T23:47:39.601Z,12.87
2019-01-19T23:50:29.645Z,12.67
2019-01-19T23:53:21.028Z,12.13
2019-01-19T23:56:11.246Z,12.07
2019-01-19T23:59:01.440Z,11.47
